Time;durP1;ratioP1;P1;durP2;ratioP2;P2;SDS_P1;SDS_P2;PMS_P1;PMS_P2;Temp;Humidity;BMP_temperature;BMP_pressure;BME280_temperature;BME280_humidity;BME280_pressure;Samples;Min_cycle;Max_cycle;Signal;HPM_P1;HPM_P2
2021/03/26 00:01:51;;;;;;;15.30;10.88;;;;;;;;;;5053578;28;20169;-79
2021/03/26 00:04:18;;;;;;;15.02;11.43;;;;;;;;;;5019116;28;20178;-79
2021/03/26 00:06:47;;;;;;;14.40;11.25;;;;;;;;;;5053021;28;20201;-79
2021/03/26 00:09:14;;;;;;;17.98;12.05;;;;;;;;;;5053778;28;20176;-79
2021/03/26 00:11:40;;;;;;;17.48;11.57;;;;;;;;;;5053585;28;20245;-78
2021/03/26 00:14:06;;;;;;;16.95;12.35;;;;;;;;;;5053303;28;20666;-78
2021/03/26 00:16:32;;;;;;;24.58;12.93;;;;;;;;;;5052989;28;20201;-78
2021/03/26 00:18:59;;;;;;;19.70;12.93;;;;;;;;;;5035584;28;20185;-80
2021/03/26 00:21:25;;;;;;;14.30;11.50;;;;;;;;;;5053234;28;20400;-77
2021/03/26 00:23:51;;;;;;;17.30;11.50;;;;;;;;;;5053150;28;20184;-79
2021/03/26 00:26:17;;;;;;;16.90;12.00;;;;;;;;;;5052726;28;20220;-79
2021/03/26 00:28:43;;;;;;;21.30;12.95;;;;;;;;;;5053219;28;20173;-79
2021/03/26 00:31:10;;;;;;;21.83;13.70;;;;;;;;;;5053155;28;20174;-80
2021/03/26 00:33:35;;;;;;;23.73;13.82;;;;;;;;;;5053303;28;20264;-78
2021/03/26 00:36:01;;;;;;;21.90;14.43;;;;;;;;;;5034727;28;20311;-81
2021/03/26 00:38:28;;;;;;;19.35;13.90;;;;;;;;;;5052954;28;20416;-79
2021/03/26 00:40:54;;;;;;;20.80;14.02;;;;;;;;;;5052963;28;20195;-79
2021/03/26 00:43:20;;;;;;;20.45;12.88;;;;;;;;;;5035223;28;20192;-80
2021/03/26 00:45:47;;;;;;;20.23;13.65;;;;;;;;;;5052596;28;20209;-80
2021/03/26 00:48:13;;;;;;;16.42;13.13;;;;;;;;;;5034910;28;20727;-81
2021/03/26 00:50:44;;;;;;;19.20;13.82;;;;;;;;;;5052735;28;20196;-79
2021/03/26 00:53:11;;;;;;;19.50;14.20;;;;;;;;;;5052672;28;20172;-80
2021/03/26 00:55:37;;;;;;;21.10;13.80;;;;;;;;;;5052319;28;20205;-80
2021/03/26 00:58:04;;;;;;;20.33;14.95;;;;;;;;;;5052608;28;20660;-80
2021/03/26 01:00:30;;;;;;;19.13;14.30;;;;;;;;;;5034776;28;20182;-79
2021/03/26 01:02:56;;;;;;;23.83;15.35;;;;;;;;;;5052478;28;20178;-78
2021/03/26 01:05:31;;;;;;;23.92;14.90;;;;;;;;;;5052245;28;20219;-81
2021/03/26 01:07:57;;;;;;;22.27;16.08;;;;;;;;;;5052540;28;20227;-79
2021/03/26 01:10:25;;;;;;;24.05;16.33;;;;;;;;;;5052624;28;20539;-79
2021/03/26 01:12:52;;;;;;;26.63;16.48;;;;;;;;;;5052510;28;20520;-78
2021/03/26 01:15:19;;;;;;;24.25;16.35;;;;;;;;;;5052302;28;20268;-79
2021/03/26 01:17:48;;;;;;;24.38;15.80;;;;;;;;;;5054693;28;20673;-79
2021/03/26 01:20:16;;;;;;;28.35;16.35;;;;;;;;;;5056658;28;20181;-78
2021/03/26 01:22:42;;;;;;;23.27;16.55;;;;;;;;;;5056490;28;20173;-79
2021/03/26 01:25:10;;;;;;;26.52;17.05;;;;;;;;;;5056313;28;20266;-79
2021/03/26 01:27:36;;;;;;;28.45;16.88;;;;;;;;;;5056535;28;20173;-79
2021/03/26 01:30:06;;;;;;;26.50;17.17;;;;;;;;;;5056466;28;20196;-80
2021/03/26 01:32:32;;;;;;;30.67;18.55;;;;;;;;;;5056474;28;20411;-79
2021/03/26 01:34:58;;;;;;;35.53;19.40;;;;;;;;;;5056184;28;20184;-79
2021/03/26 01:37:24;;;;;;;28.80;17.23;;;;;;;;;;5056490;28;20740;-78
2021/03/26 01:39:50;;;;;;;23.70;17.40;;;;;;;;;;5059433;28;20493;-80
2021/03/26 01:42:20;;;;;;;21.90;16.33;;;;;;;;;;5056327;28;20646;-80
2021/03/26 01:44:46;;;;;;;30.70;20.23;;;;;;;;;;5055787;28;20180;-78
2021/03/26 01:47:12;;;;;;;29.93;17.37;;;;;;;;;;5056149;28;20515;-79
2021/03/26 01:49:38;;;;;;;30.30;20.73;;;;;;;;;;5056124;28;20415;-79
2021/03/26 01:52:04;;;;;;;27.50;18.97;;;;;;;;;;5056146;28;20498;-78
2021/03/26 01:54:31;;;;;;;27.85;19.67;;;;;;;;;;5055635;28;20495;-80
2021/03/26 01:56:57;;;;;;;30.05;19.85;;;;;;;;;;5055919;28;20192;-78
2021/03/26 01:59:23;;;;;;;25.70;18.65;;;;;;;;;;5055989;28;20205;-79
2021/03/26 02:01:52;;;;;;;29.40;20.17;;;;;;;;;;5037921;28;20192;-79
2021/03/26 02:04:23;;;;;;;33.90;21.13;;;;;;;;;;5055608;28;20178;-79
2021/03/26 02:06:51;;;;;;;33.97;20.58;;;;;;;;;;5055355;28;20741;-78
2021/03/26 02:09:18;;;;;;;31.25;21.45;;;;;;;;;;5037969;28;20181;-80
2021/03/26 02:12:03;;;;;;;29.58;20.30;;;;;;;;;;5055708;28;20254;-79
2021/03/26 02:14:36;;;;;;;34.47;21.25;;;;;;;;;;5055233;28;20210;-79
2021/03/26 02:17:02;;;;;;;32.58;20.88;;;;;;;;;;5055465;28;20189;-80
2021/03/26 02:19:34;;;;;;;34.17;22.13;;;;;;;;;;5037766;28;20271;-78
2021/03/26 02:22:01;;;;;;;28.35;20.15;;;;;;;;;;5055615;28;20170;-79
2021/03/26 02:24:27;;;;;;;35.28;23.73;;;;;;;;;;5055421;28;20211;-78
2021/03/26 02:27:03;;;;;;;30.30;20.45;;;;;;;;;;5054956;28;20668;-79
2021/03/26 02:29:32;;;;;;;34.60;21.67;;;;;;;;;;5055128;28;20177;-80
2021/03/26 02:32:04;;;;;;;33.22;19.50;;;;;;;;;;5055493;28;20167;-79
2021/03/26 02:34:30;;;;;;;33.58;21.58;;;;;;;;;;5054931;28;20166;-79
2021/03/26 02:37:02;;;;;;;34.97;21.85;;;;;;;;;;5055196;28;20288;-78
2021/03/26 02:39:31;;;;;;;34.70;20.17;;;;;;;;;;5055273;28;20181;-80
2021/03/26 02:41:58;;;;;;;34.42;21.08;;;;;;;;;;5037442;28;20183;-78
2021/03/26 02:44:54;;;;;;;37.65;21.27;;;;;;;;;;5055082;28;20577;-80
2021/03/26 02:47:32;;;;;;;39.63;22.95;;;;;;;;;;5037824;28;20287;-80
2021/03/26 02:50:21;;;;;;;36.83;21.52;;;;;;;;;;5054894;28;20218;-79
2021/03/26 02:52:59;;;;;;;33.53;20.58;;;;;;;;;;5054790;28;20208;-78
2021/03/26 02:55:49;;;;;;;34.92;21.60;;;;;;;;;;5054387;28;20198;-79
2021/03/26 02:58:18;;;;;;;36.35;23.27;;;;;;;;;;5037057;28;20176;-79
2021/03/26 03:00:44;;;;;;;38.53;23.30;;;;;;;;;;5054744;28;20529;-79
2021/03/26 03:03:11;;;;;;;35.23;22.13;;;;;;;;;;5054888;28;20223;-80
2021/03/26 03:05:40;;;;;;;37.55;22.80;;;;;;;;;;5054177;28;20495;-79
2021/03/26 03:08:12;;;;;;;33.72;23.15;;;;;;;;;;5054814;28;20199;-80
2021/03/26 03:10:38;;;;;;;43.28;25.13;;;;;;;;;;5036775;28;20173;-79
2021/03/26 03:13:26;;;;;;;40.80;22.47;;;;;;;;;;5036423;28;20319;-79
2021/03/26 03:15:58;;;;;;;35.00;22.65;;;;;;;;;;5054168;28;20436;-78
2021/03/26 03:18:27;;;;;;;37.67;23.67;;;;;;;;;;5036661;28;20238;-81
2021/03/26 03:21:07;;;;;;;36.05;25.10;;;;;;;;;;5054386;28;20538;-78
2021/03/26 03:23:37;;;;;;;37.88;24.15;;;;;;;;;;5054352;28;20174;-78
2021/03/26 03:26:22;;;;;;;39.05;24.08;;;;;;;;;;5054045;28;20319;-78
2021/03/26 03:29:06;;;;;;;39.60;24.95;;;;;;;;;;5054355;28;20228;-79
2021/03/26 03:31:35;;;;;;;44.58;24.50;;;;;;;;;;5054553;28;20630;-78
2021/03/26 03:34:01;;;;;;;37.58;23.20;;;;;;;;;;5054208;28;20173;-78
2021/03/26 03:36:34;;;;;;;40.00;23.87;;;;;;;;;;5053895;28;20197;-77
2021/03/26 03:39:12;;;;;;;40.80;24.90;;;;;;;;;;5053774;28;20404;-80
2021/03/26 03:41:44;;;;;;;44.25;24.60;;;;;;;;;;5035889;28;20188;-79
2021/03/26 03:44:20;;;;;;;40.55;26.02;;;;;;;;;;5053990;28;20184;-79
2021/03/26 03:47:13;;;;;;;45.55;24.67;;;;;;;;;;5053478;28;20274;-78
2021/03/26 03:49:46;;;;;;;40.22;24.40;;;;;;;;;;5023280;28;20185;-81
2021/03/26 03:52:25;;;;;;;43.05;24.85;;;;;;;;;;5054051;28;20173;-80
2021/03/26 03:55:09;;;;;;;40.15;24.70;;;;;;;;;;5053494;28;20261;-78
2021/03/26 03:57:37;;;;;;;35.75;23.75;;;;;;;;;;5053862;28;20175;-78
2021/03/26 04:00:06;;;;;;;41.45;25.17;;;;;;;;;;5053691;28;20169;-79
2021/03/26 04:02:36;;;;;;;41.78;25.27;;;;;;;;;;5053725;28;20272;-80
2021/03/26 04:05:06;;;;;;;38.88;25.27;;;;;;;;;;5053158;28;20208;-79
2021/03/26 04:07:35;;;;;;;42.38;23.65;;;;;;;;;;5053673;28;20181;-80
2021/03/26 04:10:07;;;;;;;44.15;23.92;;;;;;;;;;5053558;28;20184;-79
2021/03/26 04:12:36;;;;;;;38.08;23.15;;;;;;;;;;5035560;28;20180;-79
2021/03/26 04:15:29;;;;;;;35.38;24.90;;;;;;;;;;5053105;28;20182;-79
2021/03/26 04:18:05;;;;;;;47.67;24.48;;;;;;;;;;5050285;28;20514;-79
2021/03/26 04:20:37;;;;;;;41.80;24.63;;;;;;;;;;5053467;28;20191;-80
2021/03/26 04:23:22;;;;;;;40.15;23.30;;;;;;;;;;5053413;28;20228;-79
2021/03/26 04:25:56;;;;;;;45.85;26.35;;;;;;;;;;5052728;28;20209;-78
2021/03/26 04:28:26;;;;;;;46.92;25.75;;;;;;;;;;5053320;28;20624;-78
2021/03/26 04:30:53;;;;;;;40.95;25.67;;;;;;;;;;5035446;28;20317;-80
2021/03/26 04:33:20;;;;;;;43.45;25.35;;;;;;;;;;5053064;28;20177;-79
2021/03/26 04:35:49;;;;;;;39.10;24.35;;;;;;;;;;5018589;28;20248;-78
2021/03/26 04:38:21;;;;;;;46.05;25.83;;;;;;;;;;5035230;28;20654;-78
2021/03/26 04:40:59;;;;;;;42.30;24.88;;;;;;;;;;5052937;28;20190;-78
2021/03/26 04:43:41;;;;;;;37.75;24.10;;;;;;;;;;5053118;28;20177;-79
2021/03/26 04:46:12;;;;;;;36.47;24.15;;;;;;;;;;5052756;28;20215;-78
2021/03/26 04:48:56;;;;;;;42.55;25.65;;;;;;;;;;5052850;28;20169;-78
2021/03/26 04:51:37;;;;;;;46.60;25.88;;;;;;;;;;5052952;28;20173;-79
2021/03/26 04:54:09;;;;;;;48.28;26.00;;;;;;;;;;5053004;28;20173;-79
2021/03/26 04:56:39;;;;;;;48.60;27.17;;;;;;;;;;5034987;28;20223;-79
2021/03/26 04:59:06;;;;;;;43.30;26.38;;;;;;;;;;5052693;28;20181;-77
2021/03/26 05:01:33;;;;;;;39.90;25.67;;;;;;;;;;5034787;28;20181;-80
2021/03/26 05:04:05;;;;;;;41.33;26.58;;;;;;;;;;5052628;28;20200;-77
2021/03/26 05:06:32;;;;;;;43.67;27.67;;;;;;;;;;5052300;28;20213;-78
2021/03/26 05:09:07;;;;;;;50.20;26.45;;;;;;;;;;5052868;28;20212;-78
2021/03/26 05:11:35;;;;;;;47.20;27.70;;;;;;;;;;5052580;28;20184;-79
2021/03/26 05:14:04;;;;;;;45.83;26.30;;;;;;;;;;5052373;28;20216;-77
2021/03/26 05:16:49;;;;;;;42.72;26.70;;;;;;;;;;5052188;28;20196;-80
2021/03/26 05:19:28;;;;;;;47.03;26.48;;;;;;;;;;5052575;28;20169;-77
2021/03/26 05:21:57;;;;;;;52.45;28.13;;;;;;;;;;5052808;28;20181;-79
2021/03/26 05:24:34;;;;;;;42.13;25.02;;;;;;;;;;5052496;28;20610;-78
2021/03/26 05:27:00;;;;;;;54.75;28.30;;;;;;;;;;5052362;28;20262;-79
2021/03/26 05:29:26;;;;;;;42.92;26.13;;;;;;;;;;5052460;28;20635;-78
2021/03/26 05:32:13;;;;;;;47.35;28.25;;;;;;;;;;5051968;28;20228;-77
2021/03/26 05:34:45;;;;;;;48.03;25.77;;;;;;;;;;5051987;28;20172;-79
2021/03/26 05:37:19;;;;;;;47.13;28.92;;;;;;;;;;5052517;28;20179;-78
2021/03/26 05:39:48;;;;;;;48.10;27.15;;;;;;;;;;5052192;28;20176;-77
2021/03/26 05:42:37;;;;;;;46.30;27.38;;;;;;;;;;5052360;28;20184;-79
2021/03/26 05:45:10;;;;;;;44.55;26.60;;;;;;;;;;5051696;28;20591;-78
2021/03/26 05:47:39;;;;;;;48.63;26.73;;;;;;;;;;5052621;28;20176;-78
2021/03/26 05:50:23;;;;;;;47.72;27.75;;;;;;;;;;5052402;28;20257;-77
2021/03/26 05:52:49;;;;;;;46.78;28.05;;;;;;;;;;5052240;28;20173;-77
2021/03/26 05:55:33;;;;;;;48.97;30.17;;;;;;;;;;5033933;28;20357;-78
2021/03/26 05:58:14;;;;;;;52.42;29.48;;;;;;;;;;5051929;28;20430;-80
2021/03/26 06:01:02;;;;;;;51.47;29.30;;;;;;;;;;5052152;28;20519;-78
2021/03/26 06:04:01;;;;;;;49.30;27.92;;;;;;;;;;5053836;28;20227;-79
2021/03/26 06:06:40;;;;;;;55.08;30.98;;;;;;;;;;4994586;28;20238;-78
2021/03/26 06:09:25;;;;;;;54.05;30.35;;;;;;;;;;5056049;28;20264;-77
2021/03/26 06:12:03;;;;;;;53.00;31.63;;;;;;;;;;5055727;28;20192;-78
2021/03/26 06:14:48;;;;;;;51.78;31.20;;;;;;;;;;5055229;28;20197;-77
2021/03/26 06:17:14;;;;;;;55.70;32.17;;;;;;;;;;5037582;28;20216;-78
2021/03/26 06:20:03;;;;;;;50.03;30.60;;;;;;;;;;5055587;28;20578;-78
2021/03/26 06:22:37;;;;;;;52.53;33.20;;;;;;;;;;5055409;28;20177;-77
2021/03/26 06:25:21;;;;;;;56.15;32.28;;;;;;;;;;5055150;28;20511;-78
2021/03/26 06:27:53;;;;;;;54.20;31.92;;;;;;;;;;5037687;28;20272;-79
2021/03/26 06:30:34;;;;;;;52.70;32.20;;;;;;;;;;5055493;28;20182;-78
2021/03/26 06:33:01;;;;;;;56.75;33.63;;;;;;;;;;5055280;28;20691;-78
2021/03/26 06:35:33;;;;;;;52.17;30.67;;;;;;;;;;5054701;28;20290;-78
2021/03/26 06:38:08;;;;;;;68.72;34.28;;;;;;;;;;5055184;28;20169;-76
2021/03/26 06:40:37;;;;;;;55.35;34.30;;;;;;;;;;5055118;28;20212;-78
2021/03/26 06:43:22;;;;;;;53.58;32.97;;;;;;;;;;5055232;28;20230;-77
2021/03/26 06:45:52;;;;;;;54.05;31.65;;;;;;;;;;5054564;28;20209;-77
2021/03/26 06:48:23;;;;;;;55.40;32.60;;;;;;;;;;5055056;28;20551;-78
2021/03/26 06:50:49;;;;;;;58.67;33.83;;;;;;;;;;5051899;28;20260;-77
2021/03/26 06:53:53;;;;;;;60.97;34.73;;;;;;;;;;5054997;28;20701;-79
2021/03/26 06:56:38;;;;;;;51.75;33.00;;;;;;;;;;4973736;28;20435;-78
2021/03/26 06:59:22;;;;;;;51.83;33.63;;;;;;;;;;4957640;28;20223;-78
2021/03/26 07:02:01;;;;;;;55.50;34.85;;;;;;;;;;5031229;28;20211;-77
2021/03/26 07:04:36;;;;;;;49.53;31.58;;;;;;;;;;5053725;28;20184;-76
2021/03/26 07:07:13;;;;;;;56.10;32.17;;;;;;;;;;5036818;28;20571;-77
2021/03/26 07:10:00;;;;;;;48.50;31.50;;;;;;;;;;5054606;28;20196;-77
2021/03/26 07:12:44;;;;;;;49.72;31.17;;;;;;;;;;5014013;28;20185;-78
2021/03/26 07:15:18;;;;;;;50.33;31.90;;;;;;;;;;5035064;28;20209;-80
2021/03/26 07:17:56;;;;;;;48.33;30.30;;;;;;;;;;5054519;28;20192;-79
2021/03/26 07:20:34;;;;;;;45.08;29.90;;;;;;;;;;5054423;28;20170;-78
2021/03/26 07:23:00;;;;;;;47.78;32.17;;;;;;;;;;5054159;28;20234;-79
2021/03/26 07:25:26;;;;;;;43.33;29.80;;;;;;;;;;5053882;28;20240;-79
2021/03/26 07:28:02;;;;;;;47.50;28.73;;;;;;;;;;5054326;28;20567;-79
2021/03/26 07:30:32;;;;;;;39.97;27.10;;;;;;;;;;5054145;28;20400;-78
2021/03/26 07:33:03;;;;;;;40.97;28.42;;;;;;;;;;5054202;28;20169;-77
2021/03/26 07:35:32;;;;;;;42.15;27.95;;;;;;;;;;5053518;28;20239;-78
2021/03/26 07:38:14;;;;;;;37.67;26.33;;;;;;;;;;5053945;28;20205;-77
2021/03/26 07:40:52;;;;;;;36.95;25.50;;;;;;;;;;5053917;28;20189;-80
2021/03/26 08:18:27;;;;;;;29.30;21.23;;;;;;;;;;5040296;28;20206;-76
2021/03/26 08:20:56;;;;;;;31.43;20.87;;;;;;;;;;5067364;28;20189;-77
2021/03/26 08:23:38;;;;;;;30.20;21.52;;;;;;;;;;5022200;28;20440;-78
2021/03/26 08:26:23;;;;;;;32.13;23.42;;;;;;;;;;4999271;28;20297;-79
2021/03/26 08:28:57;;;;;;;26.55;19.73;;;;;;;;;;4934506;29;20200;-80
2021/03/26 08:31:30;;;;;;;27.15;20.23;;;;;;;;;;4912776;28;20548;-80
2021/03/26 08:34:15;;;;;;;27.97;19.20;;;;;;;;;;4557744;30;602818;-79
2021/03/26 08:36:44;;;;;;;25.00;19.40;;;;;;;;;;4423490;31;20247;-77
2021/03/26 08:39:28;;;;;;;26.33;18.52;;;;;;;;;;4315047;32;20547;-79
2021/03/26 08:41:58;;;;;;;23.85;18.67;;;;;;;;;;4333225;33;20225;-79
2021/03/26 08:44:25;;;;;;;25.50;18.80;;;;;;;;;;4333565;33;20209;-78
2021/03/26 08:46:52;;;;;;;22.02;15.63;;;;;;;;;;4333301;33;20237;-78
2021/03/26 08:49:37;;;;;;;21.63;17.13;;;;;;;;;;4357101;32;20214;-79
2021/03/26 08:52:06;;;;;;;20.80;17.00;;;;;;;;;;4333566;33;20445;-80
2021/03/26 08:54:51;;;;;;;21.07;16.53;;;;;;;;;;4333272;33;20442;-79
2021/03/26 08:57:26;;;;;;;22.20;16.20;;;;;;;;;;4357060;32;20821;-77
2021/03/26 09:00:03;;;;;;;19.60;14.00;;;;;;;;;;4333631;33;20784;-79
2021/03/26 09:02:37;;;;;;;19.47;13.70;;;;;;;;;;4333502;33;20524;-78
2021/03/26 09:05:15;;;;;;;16.53;13.07;;;;;;;;;;4333082;33;20890;-79
2021/03/26 09:07:50;;;;;;;15.53;11.83;;;;;;;;;;4333323;33;20537;-80
2021/03/26 09:10:25;;;;;;;15.63;12.43;;;;;;;;;;4333354;33;20434;-78
2021/03/26 09:13:00;;;;;;;14.80;12.13;;;;;;;;;;4333448;33;20512;-78
2021/03/26 09:15:38;;;;;;;17.03;12.17;;;;;;;;;;4333007;33;20953;-79
2021/03/26 09:18:23;;;;;;;14.33;11.30;;;;;;;;;;4333583;33;20420;-77
2021/03/26 09:20:52;;;;;;;18.17;13.43;;;;;;;;;;4332882;33;20424;-79
2021/03/26 09:23:33;;;;;;;13.40;11.30;;;;;;;;;;4333023;33;20448;-80
2021/03/26 09:26:17;;;;;;;12.67;10.50;;;;;;;;;;4332875;33;20474;-79
2021/03/26 09:28:46;;;;;;;11.50;9.37;;;;;;;;;;4333234;33;20837;-78
2021/03/26 09:31:12;;;;;;;14.00;10.43;;;;;;;;;;4337806;32;20422;-78
2021/03/26 09:33:40;;;;;;;14.37;9.53;;;;;;;;;;4468191;31;20439;-79
2021/03/26 09:36:10;;;;;;;9.17;7.60;;;;;;;;;;4543906;31;567447;-79
2021/03/26 09:38:36;;;;;;;11.47;8.80;;;;;;;;;;4617269;30;20210;-79
2021/03/26 09:41:29;;;;;;;10.37;6.87;;;;;;;;;;4616124;31;20451;-79
2021/03/26 09:44:05;;;;;;;8.50;7.20;;;;;;;;;;4661885;30;20423;-81
2021/03/26 09:46:40;;;;;;;9.17;7.73;;;;;;;;;;4634442;30;20466;-78
2021/03/26 09:49:12;;;;;;;7.67;6.87;;;;;;;;;;4634817;30;20479;-79
2021/03/26 09:51:44;;;;;;;10.57;7.80;;;;;;;;;;4634610;30;20503;-79
2021/03/26 09:54:13;;;;;;;10.13;8.30;;;;;;;;;;4644838;30;20452;-77
2021/03/26 09:56:43;;;;;;;8.70;6.87;;;;;;;;;;4651159;30;20817;-76
2021/03/26 09:59:22;;;;;;;8.00;6.00;;;;;;;;;;4651484;30;20745;-77
2021/03/26 10:01:56;;;;;;;10.03;5.77;;;;;;;;;;4651388;30;21015;-78
2021/03/26 10:04:25;;;;;;;10.27;6.80;;;;;;;;;;4651307;30;20398;-80
2021/03/26 10:07:25;;;;;;;11.50;5.90;;;;;;;;;;4678495;30;20573;-78
2021/03/26 10:12:42;;;;;;;7.90;6.20;;;;;;;;;;4651439;30;20419;-79
2021/03/26 10:15:20;;;;;;;12.70;6.70;;;;;;;;;;4650826;30;20429;-78
2021/03/26 10:17:54;;;;;;;8.73;5.43;;;;;;;;;;4678831;30;20431;-78
2021/03/26 10:20:27;;;;;;;7.03;5.47;;;;;;;;;;4651423;30;20906;-77
2021/03/26 10:23:05;;;;;;;9.70;5.30;;;;;;;;;;4651178;30;20485;-81
2021/03/26 10:26:09;;;;;;;9.50;4.70;;;;;;;;;;4650878;30;20806;-80
2021/03/26 10:28:46;;;;;;;4.50;3.70;;;;;;;;;;4683184;30;20408;-80
2021/03/26 10:31:28;;;;;;;7.67;5.80;;;;;;;;;;4684091;30;20445;-78
2021/03/26 10:33:55;;;;;;;10.77;5.10;;;;;;;;;;4756444;30;20478;-75
2021/03/26 10:36:29;;;;;;;5.93;4.43;;;;;;;;;;4785867;29;20464;-78
2021/03/26 10:39:13;;;;;;;7.07;4.80;;;;;;;;;;4762157;29;20806;-80
2021/03/26 10:41:50;;;;;;;8.00;5.10;;;;;;;;;;4768018;30;20450;-79
2021/03/26 10:44:18;;;;;;;8.17;4.60;;;;;;;;;;4754501;30;20422;-80
2021/03/26 10:46:46;;;;;;;7.90;5.50;;;;;;;;;;4754197;30;20576;-77
2021/03/26 10:49:17;;;;;;;7.60;5.93;;;;;;;;;;4754457;30;20397;-79
2021/03/26 10:51:46;;;;;;;8.43;4.73;;;;;;;;;;4754600;30;20450;-77
2021/03/26 10:54:15;;;;;;;5.80;4.77;;;;;;;;;;4754483;30;20414;-78
2021/03/26 10:56:44;;;;;;;7.10;4.37;;;;;;;;;;4767655;30;20512;-79
2021/03/26 10:59:14;;;;;;;5.93;4.67;;;;;;;;;;4768392;30;20798;-79
2021/03/26 11:01:42;;;;;;;8.50;3.50;;;;;;;;;;4754561;30;20483;-77
2021/03/26 11:04:27;;;;;;;5.63;3.30;;;;;;;;;;4754336;30;20869;-78
2021/03/26 11:06:57;;;;;;;4.53;3.13;;;;;;;;;;4767921;30;20813;-79
2021/03/26 11:09:27;;;;;;;5.03;3.80;;;;;;;;;;4754581;30;20782;-80
2021/03/26 11:12:01;;;;;;;4.97;4.10;;;;;;;;;;4754346;30;20415;-79
2021/03/26 11:14:45;;;;;;;6.90;4.60;;;;;;;;;;4754112;30;20502;-80
2021/03/26 11:17:11;;;;;;;6.40;3.73;;;;;;;;;;4754264;30;20397;-80
2021/03/26 11:19:56;;;;;;;6.90;4.40;;;;;;;;;;4754194;30;20498;-78
2021/03/26 11:22:25;;;;;;;6.03;4.30;;;;;;;;;;4754248;30;20433;-78
2021/03/26 11:25:10;;;;;;;6.23;4.70;;;;;;;;;;4753852;30;20405;-80
2021/03/26 11:27:45;;;;;;;5.50;4.27;;;;;;;;;;4754126;30;20795;-78
2021/03/26 11:30:14;;;;;;;7.53;4.43;;;;;;;;;;4754466;30;20794;-79
2021/03/26 11:32:42;;;;;;;7.00;4.23;;;;;;;;;;4809729;29;20416;-77
2021/03/26 11:35:16;;;;;;;6.90;4.40;;;;;;;;;;4869460;29;20462;-80
2021/03/26 11:37:47;;;;;;;5.07;4.10;;;;;;;;;;4899479;29;20412;-77
2021/03/26 11:40:20;;;;;;;7.10;3.80;;;;;;;;;;4899537;29;20412;-79
2021/03/26 11:42:48;;;;;;;8.10;3.50;;;;;;;;;;4899397;29;20912;-77
2021/03/26 11:45:20;;;;;;;6.53;4.03;;;;;;;;;;4899117;29;20401;-81
2021/03/26 11:47:54;;;;;;;8.40;4.50;;;;;;;;;;4899681;29;20754;-81
2021/03/26 11:50:29;;;;;;;6.50;4.00;;;;;;;;;;4882377;29;20765;-80
2021/03/26 11:53:04;;;;;;;5.77;3.57;;;;;;;;;;4899165;29;20422;-78
2021/03/26 11:55:40;;;;;;;5.60;4.10;;;;;;;;;;4881966;29;20438;-77
2021/03/26 11:58:27;;;;;;;5.23;3.60;;;;;;;;;;4899234;29;20419;-77
2021/03/26 12:00:57;;;;;;;5.80;3.67;;;;;;;;;;4898421;29;20439;-78
2021/03/26 12:03:31;;;;;;;5.10;4.00;;;;;;;;;;4899064;29;20419;-78
2021/03/26 12:06:02;;;;;;;7.13;3.50;;;;;;;;;;4884889;29;20503;-78
2021/03/26 12:08:47;;;;;;;5.20;3.23;;;;;;;;;;4880006;29;20412;-78
2021/03/26 12:11:16;;;;;;;4.37;2.93;;;;;;;;;;4879950;29;20416;-79
2021/03/26 12:13:44;;;;;;;4.10;3.07;;;;;;;;;;4880274;29;20817;-80
2021/03/26 12:16:16;;;;;;;7.03;3.87;;;;;;;;;;4878292;29;20451;-81
2021/03/26 12:18:48;;;;;;;3.80;3.40;;;;;;;;;;4880106;29;20395;-77
2021/03/26 12:21:29;;;;;;;5.03;2.90;;;;;;;;;;4879935;29;20891;-76
2021/03/26 12:24:14;;;;;;;4.63;3.00;;;;;;;;;;4879912;29;20512;-79
2021/03/26 12:26:59;;;;;;;4.90;3.27;;;;;;;;;;4879459;29;20472;-78
2021/03/26 12:29:29;;;;;;;5.73;3.43;;;;;;;;;;4879980;29;20412;-77
2021/03/26 12:32:02;;;;;;;3.83;3.17;;;;;;;;;;4873033;29;20433;-77
2021/03/26 12:34:32;;;;;;;5.10;3.60;;;;;;;;;;4934775;29;20436;-78
2021/03/26 12:37:05;;;;;;;5.60;3.73;;;;;;;;;;4988911;28;20446;-78
2021/03/26 12:39:35;;;;;;;3.97;3.60;;;;;;;;;;4994079;28;20710;-78
2021/03/26 12:42:06;;;;;;;5.90;3.20;;;;;;;;;;4993936;28;20384;-78
2021/03/26 12:44:51;;;;;;;4.13;2.90;;;;;;;;;;4993708;28;20453;-77
2021/03/26 12:47:20;;;;;;;3.30;2.97;;;;;;;;;;4994002;28;20546;-78
2021/03/26 12:49:56;;;;;;;4.60;2.77;;;;;;;;;;4993939;28;20461;-77
2021/03/26 12:52:41;;;;;;;4.47;2.67;;;;;;;;;;4993936;28;20442;-77
2021/03/26 12:55:07;;;;;;;4.83;3.00;;;;;;;;;;4975812;28;20812;-78
2021/03/26 12:57:36;;;;;;;5.77;2.93;;;;;;;;;;4993924;28;20407;-77
2021/03/26 13:00:10;;;;;;;3.93;3.10;;;;;;;;;;4993629;28;20400;-77
2021/03/26 13:02:47;;;;;;;4.23;3.40;;;;;;;;;;4993569;28;20437;-78
2021/03/26 13:05:19;;;;;;;6.37;3.53;;;;;;;;;;4993126;28;20396;-77
2021/03/26 13:07:56;;;;;;;4.00;3.30;;;;;;;;;;4993777;28;20875;-78
2021/03/26 13:10:41;;;;;;;5.50;3.60;;;;;;;;;;4993688;28;20395;-77
2021/03/26 13:13:14;;;;;;;4.03;2.57;;;;;;;;;;4992713;28;20402;-77
2021/03/26 13:15:41;;;;;;;3.30;2.00;;;;;;;;;;4993092;28;20416;-78
2021/03/26 13:18:07;;;;;;;2.80;2.13;;;;;;;;;;4976018;28;20485;-77
2021/03/26 13:20:48;;;;;;;3.83;1.93;;;;;;;;;;4992596;28;20501;-78
2021/03/26 13:23:18;;;;;;;2.30;1.77;;;;;;;;;;4992921;28;20817;-77
2021/03/26 13:25:52;;;;;;;7.60;2.37;;;;;;;;;;4992540;28;20474;-77
2021/03/26 13:28:18;;;;;;;2.63;1.60;;;;;;;;;;4990552;28;20869;-77
2021/03/26 13:31:04;;;;;;;4.53;1.50;;;;;;;;;;4993401;28;20469;-78
2021/03/26 13:33:29;;;;;;;2.77;2.00;;;;;;;;;;5003129;28;20408;-77
2021/03/26 13:36:00;;;;;;;3.83;1.90;;;;;;;;;;5031471;28;20534;-77
2021/03/26 13:38:36;;;;;;;4.73;1.77;;;;;;;;;;5048714;28;20378;-78
2021/03/26 13:41:19;;;;;;;1.97;1.43;;;;;;;;;;5042899;28;20777;-76
2021/03/26 13:44:03;;;;;;;6.60;1.90;;;;;;;;;;5034744;28;20411;-79
2021/03/26 13:46:31;;;;;;;1.90;1.60;;;;;;;;;;5032202;28;20797;-72
2021/03/26 13:49:07;;;;;;;2.23;1.77;;;;;;;;;;5040335;28;20403;-72
2021/03/26 13:51:37;;;;;;;1.90;1.60;;;;;;;;;;5032473;28;20783;-73
2021/03/26 13:54:12;;;;;;;2.20;1.70;;;;;;;;;;5032414;28;20505;-73
2021/03/26 13:56:41;;;;;;;3.37;1.97;;;;;;;;;;5032009;28;20424;-73
2021/03/26 13:59:27;;;;;;;4.20;1.73;;;;;;;;;;5032292;28;20785;-74
2021/03/26 14:01:55;;;;;;;7.10;1.87;;;;;;;;;;5024932;28;20425;-73
2021/03/26 14:04:20;;;;;;;3.80;1.77;;;;;;;;;;5032358;28;20432;-73
2021/03/26 14:07:00;;;;;;;4.57;1.40;;;;;;;;;;5031828;28;20468;-73
2021/03/26 14:09:29;;;;;;;4.27;2.03;;;;;;;;;;5032335;28;20395;-72
2021/03/26 14:11:55;;;;;;;6.70;2.00;;;;;;;;;;5032183;28;20372;-73
2021/03/26 14:14:33;;;;;;;3.70;1.60;;;;;;;;;;5032406;28;20747;-73
2021/03/26 14:17:02;;;;;;;2.20;1.73;;;;;;;;;;5032036;28;20432;-73
2021/03/26 14:19:37;;;;;;;3.10;2.03;;;;;;;;;;5032296;28;20384;-73
2021/03/26 14:22:03;;;;;;;4.57;1.77;;;;;;;;;;5014157;28;20383;-73
2021/03/26 14:24:38;;;;;;;3.30;2.03;;;;;;;;;;5033612;28;20413;-74
2021/03/26 14:27:04;;;;;;;3.30;2.10;;;;;;;;;;5035592;28;20467;-73
2021/03/26 14:29:37;;;;;;;8.10;2.20;;;;;;;;;;5035714;28;20399;-73
2021/03/26 14:32:25;;;;;;;2.83;1.37;;;;;;;;;;5027213;28;20400;-75
2021/03/26 14:34:59;;;;;;;2.80;1.77;;;;;;;;;;5016254;28;20405;-73
2021/03/26 14:37:26;;;;;;;2.93;1.57;;;;;;;;;;5035646;28;20482;-75
2021/03/26 14:39:53;;;;;;;2.00;1.33;;;;;;;;;;5035404;28;20522;-74
2021/03/26 14:42:28;;;;;;;3.83;1.40;;;;;;;;;;5035544;28;20415;-74
2021/03/26 14:45:14;;;;;;;2.60;1.40;;;;;;;;;;5035101;28;20420;-75
2021/03/26 14:47:40;;;;;;;2.53;1.80;;;;;;;;;;5034257;28;20433;-76
2021/03/26 14:50:15;;;;;;;3.03;1.70;;;;;;;;;;5035286;28;20445;-77
2021/03/26 14:52:44;;;;;;;2.60;1.57;;;;;;;;;;5035253;28;20444;-74
2021/03/26 14:55:14;;;;;;;6.63;1.20;;;;;;;;;;5016702;28;20937;-76
2021/03/26 14:57:42;;;;;;;1.80;1.30;;;;;;;;;;5034998;28;20372;-77
2021/03/26 15:00:25;;;;;;;2.57;1.33;;;;;;;;;;5034772;28;20398;-76
2021/03/26 15:02:56;;;;;;;4.27;1.63;;;;;;;;;;5035172;28;20371;-75
2021/03/26 15:05:24;;;;;;;4.27;1.53;;;;;;;;;;5034574;28;20420;-75
2021/03/26 15:07:52;;;;;;;1.97;1.50;;;;;;;;;;5035045;28;20459;-74
2021/03/26 15:10:27;;;;;;;3.00;1.47;;;;;;;;;;5034899;28;20413;-77
2021/03/26 15:13:02;;;;;;;5.07;1.83;;;;;;;;;;5035164;28;20405;-74
2021/03/26 15:15:35;;;;;;;1.20;1.10;;;;;;;;;;5034676;28;20483;-73
2021/03/26 15:18:19;;;;;;;2.87;1.50;;;;;;;;;;5034871;28;20440;-74
2021/03/26 15:20:45;;;;;;;3.27;1.60;;;;;;;;;;5034758;28;20414;-74
2021/03/26 15:23:11;;;;;;;2.57;1.40;;;;;;;;;;5034754;28;20384;-76
2021/03/26 15:25:55;;;;;;;4.40;1.60;;;;;;;;;;5034255;28;20442;-74
2021/03/26 15:28:40;;;;;;;2.50;1.50;;;;;;;;;;5016766;28;20420;-75
2021/03/26 15:31:06;;;;;;;3.40;1.30;;;;;;;;;;5033764;28;20447;-74
2021/03/26 15:33:38;;;;;;;1.87;1.50;;;;;;;;;;5014783;28;20427;-76
2021/03/26 15:36:22;;;;;;;2.50;1.30;;;;;;;;;;4995921;28;20469;-75
2021/03/26 15:38:51;;;;;;;3.60;1.27;;;;;;;;;;4997108;28;20388;-76
2021/03/26 15:41:25;;;;;;;3.87;1.40;;;;;;;;;;5014483;28;20822;-74